createdAt,value
2022-12-13T00:01:51.393Z,18.60
2022-12-13T00:04:23.479Z,17.53
2022-12-13T00:06:57.960Z,18.07
2022-12-13T00:09:29.390Z,16.50
2022-12-13T00:12:11.006Z,15.43
2022-12-13T00:14:42.323Z,16.07
2022-12-13T00:17:10.766Z,14.83
2022-12-13T00:19:39.603Z,15.00
2022-12-13T00:22:12.614Z,15.93
2022-12-13T00:24:46.134Z,15.80
2022-12-13T00:27:16.946Z,14.63
2022-12-13T00:29:49.863Z,14.77
2022-12-13T00:32:23.209Z,14.67
2022-12-13T00:34:54.569Z,14.13
2022-12-13T00:37:27.571Z,13.13
2022-12-13T00:39:57.596Z,13.53
2022-12-13T00:42:28.090Z,12.87
2022-12-13T00:44:59.434Z,13.97
2022-12-13T00:47:28.077Z,14.73
2022-12-13T00:49:57.124Z,14.27
2022-12-13T00:52:28.771Z,12.93
2022-12-13T00:54:57.531Z,13.23
2022-12-13T00:57:30.229Z,11.63
2022-12-13T01:00:12.268Z,14.37
2022-12-13T01:02:41.965Z,13.23
2022-12-13T01:05:14.603Z,12.20
2022-12-13T01:07:45.379Z,13.37
2022-12-13T01:10:16.854Z,12.77
2022-12-13T01:12:52.116Z,13.70
2022-12-13T01:15:25.179Z,12.23
2022-12-13T01:17:54.270Z,13.20
2022-12-13T01:20:27.587Z,14.00
2022-12-13T01:23:00.389Z,13.33
2022-12-13T01:25:29.392Z,12.77
2022-12-13T01:28:00.253Z,12.60
2022-12-13T01:30:37.244Z,12.40
2022-12-13T01:33:17.649Z,12.93
2022-12-13T01:35:57.183Z,13.20
2022-12-13T01:38:29.143Z,12.77
2022-12-13T01:40:59.207Z,12.67
2022-12-13T01:43:55.171Z,13.50
2022-12-13T01:46:25.709Z,13.50
2022-12-13T01:49:19.612Z,12.43
2022-12-13T01:51:57.446Z,12.87
2022-12-13T01:54:37.146Z,13.67
2022-12-13T01:57:12.055Z,12.50
2022-12-13T01:59:53.640Z,13.07
2022-12-13T02:02:52.968Z,11.93
2022-12-13T02:05:37.550Z,12.03
2022-12-13T02:08:07.271Z,12.50
2022-12-13T02:10:40.042Z,12.00
2022-12-13T02:13:09.323Z,12.13
2022-12-13T02:18:47.562Z,13.13
2022-12-13T02:21:27.096Z,12.47
2022-12-13T02:24:30.085Z,13.77
2022-12-13T02:27:35.347Z,12.70
2022-12-13T02:30:30.698Z,12.13
2022-12-13T02:33:34.607Z,12.67
2022-12-13T02:36:10.124Z,11.73
2022-12-13T02:38:53.751Z,11.90
2022-12-13T02:41:34.290Z,11.10
2022-12-13T02:44:22.768Z,11.53
2022-12-13T02:47:04.611Z,12.27
2022-12-13T02:49:42.489Z,11.83
2022-12-13T02:52:14.213Z,12.50
2022-12-13T02:54:54.226Z,12.57
2022-12-13T02:57:31.462Z,12.80
2022-12-13T03:00:03.999Z,13.70
2022-12-13T03:02:51.977Z,12.43
2022-12-13T03:05:47.218Z,11.67
2022-12-13T03:11:25.656Z,12.23
2022-12-13T03:13:57.234Z,12.53
2022-12-13T03:16:48.935Z,13.20
2022-12-13T03:19:24.843Z,12.10
2022-12-13T03:22:05.944Z,11.80
2022-12-13T03:24:37.120Z,13.17
2022-12-13T03:27:10.113Z,11.37
2022-12-13T03:29:38.586Z,11.40
2022-12-13T03:32:10.610Z,12.03
2022-12-13T03:34:53.374Z,11.07
2022-12-13T03:37:29.742Z,12.07
2022-12-13T03:40:02.202Z,12.13
2022-12-13T03:42:46.085Z,11.70
2022-12-13T03:45:22.453Z,11.30
2022-12-13T03:47:53.477Z,10.90
2022-12-13T03:50:26.541Z,11.77
2022-12-13T03:52:59.935Z,12.00
2022-12-13T03:55:30.439Z,11.67
2022-12-13T03:58:03.230Z,10.67
2022-12-13T04:00:52.768Z,12.10
2022-12-13T04:03:36.948Z,11.20
2022-12-13T04:06:10.945Z,12.40
2022-12-13T04:08:51.266Z,11.00
2022-12-13T04:11:42.255Z,10.90
2022-12-13T04:14:21.578Z,11.57
2022-12-13T04:16:54.163Z,11.37
2022-12-13T04:19:24.372Z,12.00
2022-12-13T04:21:57.338Z,11.43
2022-12-13T04:24:32.329Z,11.87
2022-12-13T04:27:01.854Z,11.33
2022-12-13T04:29:34.570Z,10.80
2022-12-13T04:32:26.571Z,12.03
2022-12-13T04:35:05.937Z,12.70
2022-12-13T04:37:37.108Z,11.97
2022-12-13T04:40:12.833Z,12.13
2022-12-13T04:42:53.833Z,12.03
2022-12-13T04:45:28.050Z,11.93
2022-12-13T04:48:01.240Z,12.67
2022-12-13T04:50:30.040Z,12.37
2022-12-13T04:53:07.333Z,11.93
2022-12-13T04:55:36.370Z,11.70
2022-12-13T04:58:06.366Z,11.97
2022-12-13T05:00:34.692Z,12.07
2022-12-13T05:03:03.560Z,11.53
2022-12-13T05:05:36.293Z,11.67
2022-12-13T05:08:16.528Z,11.77
2022-12-13T05:11:04.539Z,12.10
2022-12-13T05:16:24.991Z,11.30
2022-12-13T05:18:53.638Z,10.80
2022-12-13T05:21:23.410Z,11.57
2022-12-13T05:24:02.531Z,11.53
2022-12-13T05:26:39.627Z,12.37
2022-12-13T05:29:10.388Z,12.53
2022-12-13T05:31:39.171Z,12.87
2022-12-13T05:34:09.792Z,12.90
2022-12-13T05:36:45.767Z,10.97
2022-12-13T05:39:28.423Z,13.23
2022-12-13T05:42:02.006Z,11.57
2022-12-13T05:44:36.588Z,12.60
2022-12-13T05:47:07.028Z,12.90
2022-12-13T05:49:40.763Z,13.53
2022-12-13T05:52:30.795Z,15.10
2022-12-13T05:55:05.455Z,12.43
2022-12-13T05:57:36.708Z,13.23
2022-12-13T06:00:29.918Z,13.30
2022-12-13T06:03:01.628Z,12.37
2022-12-13T06:05:30.595Z,12.30
2022-12-13T06:08:02.273Z,14.63
2022-12-13T06:10:35.186Z,11.73
2022-12-13T06:13:21.568Z,13.83
2022-12-13T06:16:23.140Z,12.30
2022-12-13T06:19:02.841Z,13.37
2022-12-13T06:21:45.540Z,12.37
2022-12-13T06:24:16.596Z,12.80
2022-12-13T06:27:08.449Z,13.30
2022-12-13T06:29:41.572Z,12.97
2022-12-13T06:32:13.948Z,13.23
2022-12-13T06:35:01.860Z,11.97
2022-12-13T06:38:01.736Z,13.23
2022-12-13T06:40:30.704Z,12.07
2022-12-13T06:43:13.372Z,13.57
2022-12-13T06:45:45.645Z,12.30
2022-12-13T06:48:17.510Z,13.93
2022-12-13T06:51:22.631Z,14.23
2022-12-13T06:53:56.863Z,16.00
2022-12-13T06:56:34.021Z,15.00
2022-12-13T06:59:11.797Z,15.70
2022-12-13T07:02:04.876Z,16.63
2022-12-13T07:04:42.677Z,13.53
2022-12-13T07:07:27.306Z,13.77
2022-12-13T07:09:58.731Z,13.83
2022-12-13T07:12:30.082Z,13.43
2022-12-13T07:15:10.816Z,13.40
2022-12-13T07:17:40.488Z,12.37
2022-12-13T07:20:15.343Z,12.63
2022-12-13T07:23:01.547Z,14.63
2022-12-13T07:25:30.516Z,14.87
2022-12-13T07:28:07.731Z,12.47
2022-12-13T07:30:49.762Z,12.80
2022-12-13T07:33:27.838Z,13.53
2022-12-13T07:38:58.374Z,14.17
2022-12-13T07:41:29.806Z,15.53
2022-12-13T07:44:07.412Z,12.60
2022-12-13T07:46:40.701Z,15.00
2022-12-13T07:49:23.444Z,14.53
2022-12-13T07:52:00.334Z,15.70
2022-12-13T07:54:38.232Z,16.73
2022-12-13T07:57:27.453Z,16.37
2022-12-13T08:02:53.214Z,16.83
2022-12-13T08:05:38.545Z,22.07
2022-12-13T08:08:23.077Z,16.03
2022-12-13T08:11:05.010Z,25.40
2022-12-13T08:13:42.637Z,68.70
2022-12-13T08:19:04.767Z,111.50
2022-12-13T08:21:54.594Z,116.80
2022-12-13T08:24:28.903Z,99.40
2022-12-13T08:27:08.858Z,95.03
2022-12-13T08:32:56.824Z,65.07
2022-12-13T08:35:22.514Z,64.87
2022-12-13T08:38:01.107Z,75.47
2022-12-13T08:40:36.170Z,69.13
2022-12-13T08:43:12.844Z,59.67
2022-12-13T08:45:51.238Z,68.17
2022-12-13T08:48:33.158Z,67.27
2022-12-13T08:51:09.926Z,69.87
2022-12-13T08:53:41.783Z,73.77
2022-12-13T08:56:13.495Z,71.30
2022-12-13T08:58:44.398Z,65.20
2022-12-13T09:01:13.890Z,59.20
2022-12-13T09:04:09.741Z,59.97
2022-12-13T09:06:39.081Z,58.90
2022-12-13T09:09:10.688Z,54.77
2022-12-13T09:11:41.205Z,49.93
2022-12-13T09:14:14.227Z,41.13
2022-12-13T09:16:50.535Z,36.33
2022-12-13T09:19:28.158Z,30.00
2022-12-13T09:22:02.438Z,27.30
2022-12-13T09:24:35.757Z,25.20
2022-12-13T09:27:09.754Z,22.43
2022-12-13T09:29:40.106Z,21.40
2022-12-13T09:32:41.391Z,20.50
2022-12-13T09:35:16.318Z,20.03
2022-12-13T09:37:59.394Z,19.10
2022-12-13T09:40:41.295Z,19.33
2022-12-13T09:43:31.877Z,19.20
2022-12-13T09:46:13.229Z,21.67
2022-12-13T09:49:01.666Z,19.27
2022-12-13T09:51:41.499Z,20.57
2022-12-13T09:54:48.341Z,20.33
2022-12-13T09:57:30.977Z,18.70
2022-12-13T10:02:47.115Z,19.73
2022-12-13T10:05:34.295Z,19.13
2022-12-13T10:08:15.470Z,20.63
2022-12-13T10:10:53.558Z,18.97
2022-12-13T10:13:27.497Z,19.57
2022-12-13T10:16:06.984Z,18.47
2022-12-13T10:18:42.546Z,19.27
2022-12-13T10:21:41.381Z,17.87
2022-12-13T10:24:34.521Z,17.87
2022-12-13T10:27:19.501Z,18.67
2022-12-13T10:30:03.520Z,18.53
2022-12-13T10:32:38.864Z,18.17
2022-12-13T10:35:42.576Z,21.30
2022-12-13T10:38:32.148Z,19.40
2022-12-13T10:41:01.291Z,18.13
2022-12-13T10:46:25.250Z,18.93
2022-12-13T10:49:17.523Z,19.60
2022-12-13T10:51:54.539Z,20.37
2022-12-13T10:55:01.269Z,19.20
2022-12-13T10:57:38.973Z,18.90
2022-12-13T11:00:38.942Z,18.53
2022-12-13T11:03:16.502Z,18.30
2022-12-13T11:05:50.915Z,20.43
2022-12-13T11:08:32.960Z,19.53
2022-12-13T11:11:03.191Z,19.20
2022-12-13T11:13:41.012Z,20.10
2022-12-13T11:16:32.067Z,18.53
2022-12-13T11:19:08.748Z,18.57
2022-12-13T11:21:41.529Z,17.53
2022-12-13T11:24:34.986Z,18.80
2022-12-13T11:27:10.805Z,18.43
2022-12-13T11:30:07.413Z,18.30
2022-12-13T11:33:04.925Z,19.30
2022-12-13T11:35:50.601Z,18.37
2022-12-13T11:38:31.745Z,18.07
2022-12-13T11:41:31.929Z,17.90
2022-12-13T11:44:11.059Z,18.20
2022-12-13T11:46:45.496Z,17.93
2022-12-13T11:49:32.422Z,17.53
2022-12-13T11:52:14.268Z,18.30
2022-12-13T11:54:54.078Z,17.87
2022-12-13T11:57:34.745Z,18.73
2022-12-13T12:00:13.048Z,18.73
2022-12-13T12:03:00.745Z,17.33
2022-12-13T12:05:35.236Z,19.33
2022-12-13T12:08:33.378Z,18.03
2022-12-13T12:11:10.100Z,18.57
2022-12-13T12:13:52.144Z,19.87
2022-12-13T12:16:37.151Z,17.97
2022-12-13T12:19:28.742Z,17.93
2022-12-13T12:22:31.320Z,18.83
2022-12-13T12:25:22.386Z,19.00
2022-12-13T12:27:59.516Z,19.53
2022-12-13T12:30:46.005Z,19.30
2022-12-13T12:33:31.252Z,20.13
2022-12-13T12:36:29.979Z,20.00
2022-12-13T12:39:26.511Z,20.03
2022-12-13T12:42:22.348Z,20.67
2022-12-13T12:45:10.513Z,20.47
2022-12-13T12:48:45.481Z,19.47
2022-12-13T12:50:59.350Z,18.57
2022-12-13T12:53:57.305Z,19.90
2022-12-13T12:56:51.077Z,19.70
2022-12-13T12:59:31.499Z,19.77
2022-12-13T13:05:55.813Z,19.03
2022-12-13T13:08:40.119Z,20.27
2022-12-13T13:11:23.842Z,18.50
2022-12-13T13:14:09.626Z,18.33
2022-12-13T13:20:16.150Z,18.47
2022-12-13T13:23:17.593Z,18.03
2022-12-13T13:26:26.799Z,17.97
2022-12-13T13:51:49.336Z,19.00
2022-12-13T13:55:10.228Z,17.63
2022-12-13T13:58:21.649Z,19.43
2022-12-13T14:01:35.209Z,19.30
2022-12-13T14:04:38.135Z,20.60
2022-12-13T14:08:12.932Z,19.87
2022-12-13T14:11:21.662Z,19.93
2022-12-13T14:14:38.358Z,19.93
2022-12-13T14:17:45.490Z,20.33
2022-12-13T14:20:54.991Z,21.33
2022-12-13T14:23:59.756Z,19.80
2022-12-13T14:26:53.568Z,19.07
2022-12-13T14:29:29.421Z,18.73
2022-12-13T14:32:06.198Z,20.17
2022-12-13T14:34:36.404Z,18.83
2022-12-13T14:37:09.706Z,19.53
2022-12-13T14:39:45.544Z,19.13
2022-12-13T14:42:37.128Z,20.10
2022-12-13T14:45:26.535Z,23.00
2022-12-13T14:47:57.368Z,22.63
2022-12-13T14:50:31.848Z,21.37
2022-12-13T14:53:12.000Z,20.47
2022-12-13T14:55:45.956Z,20.00
2022-12-13T14:58:23.151Z,19.70
2022-12-13T15:01:04.123Z,20.17
2022-12-13T15:03:35.681Z,20.37
2022-12-13T15:06:25.102Z,19.83
2022-12-13T15:09:03.007Z,20.33
2022-12-13T15:11:40.122Z,19.47
2022-12-13T15:14:36.189Z,19.30
2022-12-13T15:17:04.918Z,20.30
2022-12-13T15:22:42.439Z,20.13
2022-12-13T15:25:42.851Z,19.93
2022-12-13T15:28:36.250Z,18.70
2022-12-13T15:31:28.764Z,19.33
2022-12-13T15:34:55.572Z,19.93
2022-12-13T15:37:44.032Z,19.47
2022-12-13T15:40:28.451Z,19.20
2022-12-13T15:43:18.474Z,19.07
2022-12-13T15:46:13.797Z,19.20
2022-12-13T15:49:16.148Z,19.80
2022-12-13T15:52:01.705Z,19.03
2022-12-13T15:54:32.358Z,18.03
2022-12-13T15:57:25.292Z,18.97
2022-12-13T16:00:35.202Z,19.03
2022-12-13T16:03:31.227Z,19.17
2022-12-13T16:06:01.737Z,19.40
2022-12-13T16:08:35.803Z,18.33
2022-12-13T16:11:29.614Z,19.60
2022-12-13T16:14:31.818Z,18.03
2022-12-13T16:17:16.048Z,19.17
2022-12-13T16:20:30.541Z,19.80
2022-12-13T16:23:51.400Z,18.73
2022-12-13T16:26:39.963Z,17.93
2022-12-13T16:32:49.630Z,18.53
2022-12-13T16:35:27.240Z,16.37
2022-12-13T16:38:12.037Z,19.20
2022-12-13T16:41:09.994Z,18.43
2022-12-13T16:44:02.722Z,19.27
2022-12-13T16:47:12.088Z,19.07
2022-12-13T16:49:57.202Z,19.83
2022-12-13T16:52:56.713Z,18.50
2022-12-13T16:55:28.165Z,18.80
2022-12-13T16:58:15.002Z,19.10
2022-12-13T17:00:51.705Z,20.90
2022-12-13T17:03:58.550Z,19.03
2022-12-13T17:06:27.162Z,19.60
2022-12-13T17:08:58.119Z,20.23
2022-12-13T17:11:26.953Z,20.67
2022-12-13T17:14:04.409Z,18.97
2022-12-13T17:16:34.185Z,18.70
2022-12-13T17:19:14.052Z,17.93
2022-12-13T17:21:55.897Z,18.57
2022-12-13T17:24:24.602Z,18.60
2022-12-13T17:27:00.814Z,17.67
2022-12-13T17:29:29.627Z,18.03
2022-12-13T17:32:08.120Z,17.87
2022-12-13T17:34:36.634Z,17.73
2022-12-13T17:37:11.012Z,18.07
2022-12-13T17:40:00.472Z,18.60
2022-12-13T17:42:50.968Z,18.43
2022-12-13T17:45:31.328Z,19.70
2022-12-13T17:48:09.873Z,23.97
2022-12-13T17:50:42.453Z,20.90
2022-12-13T17:53:13.484Z,19.20
2022-12-13T17:55:52.816Z,20.37
2022-12-13T17:58:51.901Z,23.30
2022-12-13T18:01:30.451Z,21.80
2022-12-13T18:04:12.417Z,24.90
2022-12-13T18:09:31.892Z,21.07
2022-12-13T18:12:08.755Z,25.30
2022-12-13T18:15:08.754Z,26.73
2022-12-13T18:18:10.240Z,21.40
2022-12-13T18:22:54.845Z,18.30
2022-12-13T18:25:32.233Z,18.70
2022-12-13T18:28:12.698Z,17.97
2022-12-13T18:31:03.141Z,18.60
2022-12-13T18:33:36.971Z,18.37
2022-12-13T18:36:08.790Z,19.13
2022-12-13T18:38:43.441Z,19.37
2022-12-13T18:41:22.993Z,18.97
2022-12-13T18:44:37.951Z,19.10
2022-12-13T18:47:19.447Z,19.03
2022-12-13T18:50:04.399Z,19.43
2022-12-13T18:52:35.917Z,18.83
2022-12-13T18:55:16.503Z,19.07
2022-12-13T18:57:50.463Z,18.77
2022-12-13T19:00:27.300Z,19.80
2022-12-13T19:03:02.722Z,18.53
2022-12-13T19:05:35.963Z,19.33
2022-12-13T19:08:12.245Z,18.80
2022-12-13T19:11:07.152Z,19.47
2022-12-13T19:14:03.500Z,20.27
2022-12-13T19:17:03.303Z,17.23
2022-12-13T19:19:37.288Z,16.03
2022-12-13T19:22:06.768Z,17.43
2022-12-13T19:24:38.477Z,19.27
2022-12-13T19:27:10.918Z,18.10
2022-12-13T19:29:39.561Z,18.57
2022-12-13T19:32:08.084Z,17.43
2022-12-13T19:34:43.838Z,17.37
2022-12-13T19:37:13.020Z,17.07
2022-12-13T19:39:43.032Z,20.07
2022-12-13T19:42:25.493Z,18.17
2022-12-13T19:44:59.937Z,17.43
2022-12-13T19:47:28.458Z,17.73
2022-12-13T19:49:56.774Z,17.83
2022-12-13T19:52:25.126Z,18.60
2022-12-13T19:54:56.926Z,18.40
2022-12-13T19:57:27.090Z,18.03
2022-12-13T20:00:00.151Z,18.57
2022-12-13T20:02:28.727Z,19.03
2022-12-13T20:04:57.378Z,18.83
2022-12-13T20:07:27.667Z,16.10
2022-12-13T20:09:56.077Z,18.53
2022-12-13T20:12:29.639Z,16.73
2022-12-13T20:15:02.807Z,19.87
2022-12-13T20:17:31.163Z,19.00
2022-12-13T20:20:01.937Z,20.20
2022-12-13T20:22:30.410Z,21.03
2022-12-13T20:24:58.828Z,18.33
2022-12-13T20:27:31.457Z,18.40
2022-12-13T20:30:00.114Z,19.50
2022-12-13T20:32:30.978Z,18.83
2022-12-13T20:35:16.288Z,18.27
2022-12-13T20:37:51.947Z,18.73
2022-12-13T20:40:26.421Z,16.90
2022-12-13T20:42:56.268Z,17.73
2022-12-13T20:45:29.796Z,16.17
2022-12-13T20:48:01.025Z,18.73
2022-12-13T20:50:29.391Z,17.93
2022-12-13T20:53:06.407Z,17.40
2022-12-13T20:55:38.244Z,19.33
2022-12-13T20:58:07.910Z,18.10
2022-12-13T21:00:36.596Z,17.97
2022-12-13T21:03:05.300Z,18.07
2022-12-13T21:05:34.379Z,16.90
2022-12-13T21:08:19.702Z,18.10
2022-12-13T21:11:22.867Z,17.17
2022-12-13T21:13:59.964Z,18.20
2022-12-13T21:16:33.901Z,18.33
2022-12-13T21:19:05.006Z,18.70
2022-12-13T21:21:33.523Z,18.77
2022-12-13T21:24:09.066Z,20.40
2022-12-13T21:26:40.160Z,19.17
2022-12-13T21:29:15.592Z,18.40
2022-12-13T21:31:50.885Z,22.27
2022-12-13T21:34:21.841Z,20.63
2022-12-13T21:36:52.645Z,22.27
2022-12-13T21:39:28.013Z,22.60
2022-12-13T21:41:56.769Z,21.53
2022-12-13T21:44:26.399Z,19.93
2022-12-13T21:47:13.244Z,17.60
2022-12-13T21:49:42.204Z,16.23
2022-12-13T21:52:19.312Z,16.27
2022-12-13T21:54:48.071Z,17.10
2022-12-13T21:57:55.648Z,15.80
2022-12-13T22:00:25.224Z,15.60
2022-12-13T22:02:53.505Z,16.10
2022-12-13T22:05:24.232Z,17.20
2022-12-13T22:07:55.237Z,16.23
2022-12-13T22:10:24.053Z,15.50
2022-12-13T22:12:53.666Z,15.53
2022-12-13T22:15:24.603Z,15.60
2022-12-13T22:20:12.079Z,14.97
2022-12-13T22:22:45.351Z,14.37
2022-12-13T22:25:14.562Z,14.50
2022-12-13T22:27:42.586Z,13.60
2022-12-13T22:30:14.362Z,15.13
2022-12-13T22:32:42.678Z,16.57
2022-12-13T22:35:19.996Z,15.33
2022-12-13T22:37:52.924Z,14.87
2022-12-13T22:40:23.930Z,14.40
2022-12-13T22:42:58.783Z,15.10
2022-12-13T22:45:27.170Z,14.03
2022-12-13T22:47:58.279Z,13.07
2022-12-13T22:50:30.293Z,13.13
2022-12-13T22:53:02.474Z,12.63
2022-12-13T22:55:31.124Z,12.80
2022-12-13T22:57:59.693Z,12.73
2022-12-13T23:00:30.471Z,12.57
2022-12-13T23:03:05.085Z,13.33
2022-12-13T23:05:34.892Z,12.17
2022-12-13T23:08:03.438Z,12.80
2022-12-13T23:10:49.168Z,12.33
2022-12-13T23:13:17.644Z,12.30
2022-12-13T23:15:49.288Z,11.67
2022-12-13T23:18:17.895Z,12.87
2022-12-13T23:20:50.651Z,12.37
2022-12-13T23:23:22.320Z,12.37
2022-12-13T23:25:52.733Z,12.07
2022-12-13T23:28:23.246Z,12.03
2022-12-13T23:31:11.686Z,12.37
2022-12-13T23:33:45.517Z,12.20
2022-12-13T23:39:12.636Z,11.50
2022-12-13T23:41:43.927Z,11.23
2022-12-13T23:44:27.781Z,11.27
2022-12-13T23:46:56.678Z,13.83
2022-12-13T23:49:24.997Z,15.07
2022-12-13T23:51:57.519Z,14.13
2022-12-13T23:54:27.533Z,12.70
2022-12-13T23:56:55.905Z,12.17
2022-12-13T23:59:28.468Z,11.10
